createdAt,value
2022-10-23T00:00:58.298Z,97.31
2022-10-23T00:01:58.627Z,96.39
2022-10-23T00:02:59.042Z,95.89
2022-10-23T00:03:59.264Z,95.48
2022-10-23T00:04:59.603Z,96.09
2022-10-23T00:05:59.812Z,95.37
2022-10-23T00:07:00.155Z,95.07
2022-10-23T00:08:00.484Z,96.91
2022-10-23T00:09:00.792Z,97.11
2022-10-23T00:10:02.990Z,97.41
2022-10-23T00:11:01.409Z,96.60
2022-10-23T00:12:01.735Z,95.17
2022-10-23T00:13:02.078Z,94.76
2022-10-23T00:14:02.306Z,97.00
2022-10-23T00:15:02.629Z,97.31
2022-10-23T00:16:02.958Z,94.97
2022-10-23T00:17:03.327Z,96.30
2022-10-23T00:18:03.544Z,97.21
2022-10-23T00:19:03.887Z,97.72
2022-10-23T00:20:04.227Z,96.09
2022-10-23T00:21:04.445Z,95.37
2022-10-23T00:22:04.784Z,95.28
2022-10-23T00:23:04.998Z,95.07
2022-10-23T00:24:05.399Z,96.39
2022-10-23T00:25:05.574Z,97.52
2022-10-23T00:26:05.928Z,96.80
2022-10-23T00:27:06.191Z,96.70
2022-10-23T00:28:06.420Z,96.60
2022-10-23T00:29:06.647Z,98.18
2022-10-23T00:30:06.860Z,97.87
2022-10-23T00:31:07.194Z,98.27
2022-10-23T00:32:07.533Z,98.99
2022-10-23T00:33:07.850Z,99.50
2022-10-23T00:34:08.523Z,99.19
2022-10-23T00:35:08.475Z,99.19
2022-10-23T00:36:08.798Z,99.19
2022-10-23T00:37:09.162Z,99.09
2022-10-23T00:38:09.382Z,98.63
2022-10-23T00:39:09.704Z,99.04
2022-10-23T00:40:10.006Z,99.14
2022-10-23T00:41:10.316Z,99.99
2022-10-23T00:42:10.679Z,99.85
2022-10-23T00:43:10.899Z,99.85
2022-10-23T00:44:11.226Z,99.99
2022-10-23T00:45:11.545Z,99.99
2022-10-23T00:46:11.778Z,99.99
2022-10-23T00:47:12.150Z,99.99
2022-10-23T00:48:12.365Z,99.99
2022-10-23T00:50:12.988Z,99.99
2022-10-23T00:51:13.306Z,99.99
2022-10-23T02:55:56.561Z,99.99
2022-10-23T02:56:56.814Z,99.99
2022-10-23T02:57:57.080Z,99.99
2022-10-23T02:58:57.335Z,99.99
2022-10-23T02:59:57.614Z,99.99
2022-10-23T03:00:57.880Z,99.99
2022-10-23T03:01:58.246Z,99.99
2022-10-23T03:02:58.443Z,99.99
2022-10-23T03:03:58.774Z,99.99
2022-10-23T03:04:59.041Z,99.99
2022-10-23T03:05:59.301Z,99.99
2022-10-23T03:06:59.528Z,99.99
2022-10-23T03:07:59.852Z,99.99
2022-10-23T03:09:00.107Z,99.99
2022-10-23T03:10:00.327Z,99.99
2022-10-23T03:11:00.545Z,99.99
2022-10-23T03:12:00.916Z,99.99
2022-10-23T03:13:01.184Z,99.99
2022-10-23T03:14:01.400Z,99.99
2022-10-23T03:15:01.659Z,99.99
2022-10-23T03:16:01.874Z,99.99
2022-10-23T03:17:02.206Z,99.99
2022-10-23T03:18:02.530Z,99.99
2022-10-23T03:19:02.941Z,99.99
2022-10-23T03:20:03.218Z,99.99
2022-10-23T03:21:03.441Z,99.99
2022-10-23T03:22:03.666Z,99.68
2022-10-23T03:23:03.974Z,99.99
2022-10-23T03:24:04.292Z,99.99
2022-10-23T03:25:04.630Z,99.99
2022-10-23T03:26:04.873Z,99.99
2022-10-23T03:27:05.127Z,99.99
2022-10-23T03:28:05.334Z,99.99
2022-10-23T03:29:05.673Z,99.99
2022-10-23T03:30:05.987Z,99.99
2022-10-23T03:31:06.301Z,99.79
2022-10-23T03:32:06.644Z,99.48
2022-10-23T03:33:06.852Z,98.86
2022-10-23T03:34:08.214Z,99.79
2022-10-23T03:35:07.424Z,99.58
2022-10-23T03:36:07.762Z,99.48
2022-10-23T03:37:08.016Z,99.58
2022-10-23T03:38:08.233Z,99.99
2022-10-23T03:39:08.558Z,99.99
2022-10-23T03:40:08.876Z,99.99
2022-10-23T03:41:09.095Z,99.99
2022-10-23T03:42:09.463Z,99.89
2022-10-23T03:43:09.701Z,99.79
2022-10-23T03:44:09.910Z,99.79
2022-10-23T03:45:10.243Z,99.89
2022-10-23T03:46:10.562Z,99.99
2022-10-23T03:47:10.896Z,99.84
2022-10-23T03:48:11.163Z,99.43
2022-10-23T03:49:11.386Z,99.52
2022-10-23T03:50:11.717Z,99.99
2022-10-23T03:51:11.939Z,99.99
2022-10-23T03:52:12.326Z,99.99
2022-10-23T03:53:12.573Z,99.99
2022-10-23T03:54:12.779Z,98.86
2022-10-23T03:55:13.143Z,98.77
2022-10-23T03:56:13.370Z,98.56
2022-10-23T03:57:13.614Z,99.27
2022-10-23T03:58:13.826Z,99.84
2022-10-23T03:59:14.142Z,99.99
2022-10-23T04:00:14.451Z,99.99
2022-10-23T04:01:14.852Z,99.99
2022-10-23T04:02:15.190Z,99.99
2022-10-23T04:03:15.300Z,99.99
2022-10-23T04:04:15.624Z,99.99
2022-10-23T04:05:15.871Z,99.99
2022-10-23T04:06:16.099Z,99.99
2022-10-23T04:07:16.368Z,99.99
2022-10-23T04:08:19.904Z,99.99
2022-10-23T04:09:16.878Z,99.99
2022-10-23T04:10:17.139Z,99.73
2022-10-23T04:11:17.355Z,99.84
2022-10-23T04:12:17.694Z,99.99
2022-10-23T04:13:18.034Z,99.99
2022-10-23T04:14:18.371Z,99.99
2022-10-23T04:15:18.745Z,99.99
2022-10-23T04:16:18.959Z,99.02
2022-10-23T04:17:19.344Z,98.20
2022-10-23T04:18:19.586Z,98.81
2022-10-23T04:19:19.900Z,99.22
2022-10-23T04:20:20.148Z,99.02
2022-10-23T04:21:20.382Z,99.63
2022-10-23T04:22:23.540Z,99.99
2022-10-23T04:23:21.946Z,99.99
2022-10-23T04:24:21.227Z,99.99
2022-10-23T04:25:21.555Z,99.99
2022-10-23T04:26:21.895Z,99.99
2022-10-23T04:27:22.224Z,99.99
2022-10-23T04:28:22.592Z,99.99
2022-10-23T04:29:22.817Z,99.99
2022-10-23T04:30:23.028Z,99.99
2022-10-23T04:31:23.257Z,99.99
2022-10-23T04:32:23.492Z,99.99
2022-10-23T04:33:23.753Z,99.99
2022-10-23T04:34:23.981Z,99.99
2022-10-23T04:35:24.330Z,99.99
2022-10-23T04:36:24.557Z,99.99
2022-10-23T04:37:24.881Z,99.99
2022-10-23T04:38:25.240Z,99.99
2022-10-23T04:39:25.494Z,99.99
2022-10-23T04:40:25.715Z,99.99
2022-10-23T04:41:26.060Z,99.99
2022-10-23T04:43:26.540Z,99.99
2022-10-23T04:44:26.890Z,99.99
2022-10-23T04:45:27.103Z,99.99
2022-10-23T04:46:27.442Z,99.99
2022-10-23T04:47:27.755Z,99.99
2022-10-23T04:48:29.198Z,99.99
2022-10-23T04:49:28.413Z,99.87
2022-10-23T04:50:28.635Z,99.99
2022-10-23T04:51:29.005Z,99.99
2022-10-23T04:52:29.255Z,99.99
2022-10-23T04:53:29.463Z,99.99
2022-10-23T04:54:29.790Z,99.99
2022-10-23T04:55:30.013Z,99.27
2022-10-23T04:56:30.359Z,98.75
2022-10-23T04:57:30.600Z,99.11
2022-10-23T04:58:30.821Z,99.72
2022-10-23T04:59:31.045Z,98.55
2022-10-23T05:00:31.293Z,99.52
2022-10-23T05:01:31.680Z,99.72
2022-10-23T05:02:31.871Z,99.93
2022-10-23T05:03:32.134Z,99.31
2022-10-23T05:04:32.358Z,98.70
2022-10-23T05:05:32.591Z,98.49
2022-10-23T05:06:32.818Z,98.70
2022-10-23T05:07:33.047Z,99.21
2022-10-23T05:08:33.405Z,99.99
2022-10-23T05:09:33.629Z,99.99
2022-10-23T05:10:33.857Z,99.99
2022-10-23T05:11:34.090Z,99.99
2022-10-23T05:12:34.429Z,99.99
2022-10-23T05:13:34.689Z,99.99
2022-10-23T05:14:34.925Z,99.99
2022-10-23T05:15:35.202Z,99.99
2022-10-23T05:16:35.451Z,99.99
2022-10-23T05:17:35.797Z,99.99
2022-10-23T05:18:36.557Z,99.99
2022-10-23T05:19:36.322Z,99.99
2022-10-23T05:20:36.666Z,99.99
2022-10-23T05:21:37.004Z,99.99
2022-10-23T05:22:37.339Z,99.99
2022-10-23T05:23:37.577Z,99.99
2022-10-23T05:24:37.829Z,99.99
2022-10-23T05:25:38.053Z,99.99
2022-10-23T05:26:38.433Z,99.99
2022-10-23T05:27:38.655Z,99.99
2022-10-23T05:28:39.044Z,99.99
2022-10-23T05:29:39.216Z,99.99
2022-10-23T05:30:39.570Z,99.99
2022-10-23T05:31:39.808Z,99.99
2022-10-23T05:32:40.353Z,99.99
2022-10-23T05:33:40.421Z,99.99
2022-10-23T05:34:40.639Z,99.99
2022-10-23T05:35:41.018Z,99.99
2022-10-23T05:36:41.247Z,99.99
2022-10-23T05:37:41.469Z,99.99
2022-10-23T05:38:41.693Z,99.99
2022-10-23T05:39:41.940Z,99.99
2022-10-23T05:40:42.159Z,99.99
2022-10-23T05:41:42.405Z,99.99
2022-10-23T05:42:43.015Z,99.99
2022-10-23T05:43:42.917Z,99.99
2022-10-23T05:44:43.130Z,99.99
2022-10-23T05:45:43.449Z,99.99
2022-10-23T05:46:43.830Z,99.99
2022-10-23T05:47:44.042Z,99.99
2022-10-23T05:48:44.285Z,99.99
2022-10-23T05:49:44.511Z,99.99
2022-10-23T05:50:44.831Z,99.99
2022-10-23T05:51:45.084Z,99.99
2022-10-23T05:52:45.663Z,99.99
2022-10-23T05:53:45.591Z,99.99
2022-10-23T05:54:45.920Z,99.99
2022-10-23T05:55:46.138Z,99.99
2022-10-23T05:56:46.473Z,99.99
2022-10-23T05:57:46.716Z,99.99
2022-10-23T05:58:46.977Z,99.99
2022-10-23T05:59:47.207Z,99.99
2022-10-23T06:00:47.428Z,99.99
2022-10-23T06:01:47.863Z,99.99
2022-10-23T06:02:47.950Z,99.99
2022-10-23T06:03:48.232Z,99.99
2022-10-23T06:04:48.447Z,99.99
2022-10-23T06:05:48.681Z,99.99
2022-10-23T06:06:49.053Z,99.99
2022-10-23T06:07:49.287Z,99.99
2022-10-23T06:08:49.521Z,99.99
2022-10-23T06:09:49.779Z,99.99
2022-10-23T06:10:50.019Z,99.99
2022-10-23T06:11:50.250Z,99.99
2022-10-23T06:12:50.570Z,99.99
2022-10-23T06:13:50.887Z,99.99
2022-10-23T06:14:51.952Z,99.99
2022-10-23T06:15:51.359Z,99.99
2022-10-23T06:16:51.620Z,99.99
2022-10-23T06:17:51.859Z,99.99
2022-10-23T06:18:52.109Z,99.99
2022-10-23T06:19:52.356Z,99.99
2022-10-23T06:20:52.578Z,99.99
2022-10-23T06:21:52.793Z,99.99
2022-10-23T06:22:53.127Z,99.99
2022-10-23T06:23:53.378Z,99.99
2022-10-23T06:24:53.606Z,99.99
2022-10-23T06:25:53.854Z,99.99
2022-10-23T06:26:54.073Z,99.99
2022-10-23T06:27:54.305Z,99.99
2022-10-23T06:28:54.658Z,99.99
2022-10-23T06:29:54.868Z,99.99
2022-10-23T06:30:55.206Z,99.89
2022-10-23T06:31:55.464Z,97.54
2022-10-23T06:32:55.713Z,96.62
2022-10-23T06:33:55.930Z,97.33
2022-10-23T06:34:56.158Z,98.00
2022-10-23T06:35:56.401Z,99.33
2022-10-23T06:36:56.624Z,99.43
2022-10-23T06:37:56.898Z,99.43
2022-10-23T06:38:57.181Z,99.02
2022-10-23T06:39:57.419Z,97.75
2022-10-23T06:40:57.653Z,95.20
2022-10-23T06:41:57.875Z,96.53
2022-10-23T06:42:58.249Z,96.12
2022-10-23T06:43:58.483Z,95.10
2022-10-23T06:45:01.137Z,96.79
2022-10-23T06:45:59.075Z,97.71
2022-10-23T06:46:59.303Z,96.33
2022-10-23T06:47:59.666Z,94.29
2022-10-23T06:48:59.924Z,94.59
2022-10-23T06:50:00.156Z,95.10
2022-10-23T06:51:00.389Z,96.84
2022-10-23T06:52:00.608Z,97.45
2022-10-23T06:53:00.957Z,97.55
2022-10-23T06:54:01.203Z,98.63
2022-10-23T06:55:01.418Z,96.28
2022-10-23T06:56:01.646Z,94.45
2022-10-23T06:57:01.991Z,93.63
2022-10-23T06:58:02.248Z,94.50
2022-10-23T06:59:02.456Z,93.79
2022-10-23T07:00:02.765Z,91.75
2022-10-23T07:01:03.266Z,92.67
2022-10-23T07:02:03.312Z,93.59
2022-10-23T07:03:03.666Z,93.28
2022-10-23T07:04:03.994Z,96.39
2022-10-23T07:05:04.239Z,94.35
2022-10-23T07:06:04.578Z,95.07
2022-10-23T07:07:04.915Z,96.80
2022-10-23T07:08:05.249Z,96.55
2022-10-23T07:09:05.626Z,93.60
2022-10-23T07:10:05.890Z,92.18
2022-10-23T07:11:06.125Z,95.13
2022-10-23T07:12:06.351Z,94.31
2022-10-23T07:13:06.677Z,92.68
2022-10-23T07:14:06.894Z,91.26
2022-10-23T07:15:07.224Z,90.03
2022-10-23T07:16:07.567Z,90.34
2022-10-23T07:17:07.825Z,89.22
2022-10-23T07:18:08.033Z,90.24
2022-10-23T07:19:08.403Z,91.42
2022-10-23T07:20:08.615Z,89.59
2022-10-23T07:21:08.935Z,87.75
2022-10-23T07:22:10.829Z,88.26
2022-10-23T07:23:09.526Z,88.92
2022-10-23T07:24:09.905Z,89.01
2022-10-23T07:25:10.128Z,88.93
2022-10-23T07:26:10.353Z,88.04
2022-10-23T07:27:10.693Z,87.53
2022-10-23T07:28:10.918Z,85.15
2022-10-23T07:29:11.182Z,84.99
2022-10-23T07:30:11.410Z,85.05
2022-10-23T07:31:11.754Z,86.16
2022-10-23T07:32:11.977Z,88.16
2022-10-23T07:33:12.304Z,84.46
2022-10-23T07:34:12.669Z,83.54
2022-10-23T07:36:14.160Z,83.61
2022-10-23T07:37:13.439Z,84.22
2022-10-23T07:38:13.785Z,83.51
2022-10-23T07:39:14.128Z,84.32
2022-10-23T07:40:14.325Z,83.40
2022-10-23T07:41:14.644Z,83.00
2022-10-23T07:42:14.967Z,81.78
2022-10-23T07:43:15.300Z,83.91
2022-10-23T07:44:15.655Z,82.80
2022-10-23T07:45:15.858Z,82.50
2022-10-23T07:46:16.189Z,82.50
2022-10-23T07:47:16.515Z,83.10
2022-10-23T07:48:16.828Z,82.84
2022-10-23T07:49:17.218Z,82.94
2022-10-23T07:50:17.467Z,83.04
2022-10-23T07:51:17.674Z,84.26
2022-10-23T07:52:18.012Z,84.87
2022-10-23T07:53:18.326Z,86.90
2022-10-23T07:54:18.650Z,86.35
2022-10-23T07:55:18.975Z,84.52
2022-10-23T07:56:19.177Z,83.91
2022-10-23T07:57:19.495Z,81.68
2022-10-23T07:58:19.800Z,81.13
2022-10-23T07:59:20.139Z,80.73
2022-10-23T08:00:20.538Z,80.02
2022-10-23T08:01:20.815Z,80.02
2022-10-23T08:02:21.058Z,81.04
2022-10-23T08:03:21.312Z,82.05
2022-10-23T08:04:21.663Z,80.69
2022-10-23T08:05:21.905Z,79.68
2022-10-23T08:06:22.102Z,78.46
2022-10-23T08:07:22.426Z,79.17
2022-10-23T08:08:22.796Z,78.66
2022-10-23T08:09:23.018Z,78.66
2022-10-23T08:10:23.383Z,81.16
2022-10-23T08:11:23.697Z,81.16
2022-10-23T08:12:23.926Z,79.34
2022-10-23T08:13:24.248Z,80.21
2022-10-23T08:14:24.566Z,79.20
2022-10-23T08:15:24.870Z,77.98
2022-10-23T08:16:25.215Z,76.63
2022-10-23T08:17:28.174Z,76.43
2022-10-23T08:18:25.641Z,76.70
2022-10-23T08:19:25.960Z,75.28
2022-10-23T08:20:26.297Z,75.14
2022-10-23T08:21:26.556Z,77.06
2022-10-23T08:22:26.790Z,74.80
2022-10-23T08:23:27.016Z,75.01
2022-10-23T08:24:27.240Z,73.46
2022-10-23T08:25:27.634Z,72.64
2022-10-23T08:26:27.889Z,73.42
2022-10-23T08:27:28.145Z,72.27
2022-10-23T08:28:28.369Z,72.38
2022-10-23T08:29:28.698Z,74.09
2022-10-23T08:30:29.036Z,71.67
2022-10-23T08:31:29.415Z,72.17
2022-10-23T08:32:29.628Z,70.93
2022-10-23T08:33:29.932Z,70.89
2022-10-23T08:34:30.260Z,69.45
2022-10-23T08:35:30.600Z,69.29
2022-10-23T08:36:30.838Z,67.11
2022-10-23T08:37:31.055Z,65.44
2022-10-23T08:38:31.400Z,63.70
2022-10-23T08:39:31.716Z,64.20
2022-10-23T08:40:32.067Z,66.11
2022-10-23T08:41:32.300Z,64.60
2022-10-23T08:42:32.489Z,64.37
2022-10-23T08:43:32.825Z,62.20
2022-10-23T08:44:33.142Z,60.78
2022-10-23T08:45:33.489Z,57.92
2022-10-23T08:46:33.826Z,56.74
2022-10-23T08:47:34.182Z,53.66
2022-10-23T08:48:34.405Z,52.69
2022-10-23T08:49:34.733Z,51.35
2022-10-23T08:50:35.101Z,50.60
2022-10-23T08:51:35.312Z,48.77
2022-10-23T08:52:35.669Z,49.16
2022-10-23T08:53:35.898Z,48.65
2022-10-23T08:54:36.222Z,48.65
2022-10-23T08:55:36.577Z,48.82
2022-10-23T08:56:36.909Z,48.14
2022-10-23T08:57:40.089Z,49.09
2022-10-23T08:58:38.460Z,48.38
2022-10-23T08:59:37.760Z,47.06
2022-10-23T09:00:38.072Z,47.28
2022-10-23T09:01:38.564Z,48.18
2022-10-23T09:02:38.692Z,46.69
2022-10-23T09:03:38.913Z,47.53
2022-10-23T09:04:39.237Z,49.29
2022-10-23T09:05:39.541Z,51.27
2022-10-23T09:06:39.851Z,53.86
2022-10-23T09:07:40.291Z,55.89
2022-10-23T09:08:40.520Z,59.28
2022-10-23T09:09:40.836Z,60.24
2022-10-23T09:10:41.168Z,61.19
2022-10-23T09:11:41.499Z,62.73
2022-10-23T09:12:41.731Z,63.70
2022-10-23T09:13:41.933Z,65.20
2022-10-23T09:14:42.260Z,65.53
2022-10-23T09:15:42.601Z,65.84
2022-10-23T09:16:42.791Z,65.84
2022-10-23T09:17:43.459Z,64.47
2022-10-23T09:18:43.401Z,63.33
2022-10-23T09:19:43.711Z,64.34
2022-10-23T09:20:44.028Z,64.27
2022-10-23T09:21:44.231Z,65.33
2022-10-23T09:22:44.541Z,66.03
2022-10-23T09:23:44.854Z,66.37
2022-10-23T09:24:45.172Z,66.67
2022-10-23T09:25:45.517Z,66.37
2022-10-23T09:26:45.833Z,65.47
2022-10-23T09:27:46.224Z,66.47
2022-10-23T09:28:46.413Z,67.71
2022-10-23T09:29:46.735Z,67.61
2022-10-23T09:30:47.041Z,68.15
2022-10-23T09:31:47.369Z,68.85
2022-10-23T09:32:47.713Z,68.95
2022-10-23T09:33:47.905Z,68.21
2022-10-23T09:34:48.253Z,67.47
2022-10-23T09:35:48.559Z,66.74
2022-10-23T09:36:48.898Z,65.34
2022-10-23T09:37:49.109Z,63.07
2022-10-23T09:38:49.403Z,63.54
2022-10-23T09:39:49.737Z,61.55
2022-10-23T09:40:49.935Z,59.86
2022-10-23T09:41:50.906Z,59.44
2022-10-23T09:42:50.597Z,56.71
2022-10-23T09:43:50.905Z,57.04
2022-10-23T09:44:51.240Z,59.74
2022-10-23T09:45:51.553Z,58.54
2022-10-23T09:46:51.880Z,58.24
2022-10-23T09:47:52.151Z,57.54
2022-10-23T09:48:52.445Z,57.26
2022-10-23T09:49:52.802Z,58.00
2022-10-23T09:50:53.026Z,59.22
2022-10-23T09:51:53.324Z,60.22
2022-10-23T09:52:53.690Z,60.32
2022-10-23T09:53:53.939Z,60.62
2022-10-23T09:54:54.265Z,60.02
2022-10-23T09:55:54.608Z,60.85
2022-10-23T09:56:54.811Z,61.41
2022-10-23T09:57:55.132Z,62.41
2022-10-23T09:58:55.464Z,62.92
2022-10-23T09:59:55.678Z,61.21
2022-10-23T10:00:55.986Z,61.21
2022-10-23T10:01:56.326Z,63.50
2022-10-23T10:02:56.433Z,65.14
2022-10-23T10:03:56.746Z,66.98
2022-10-23T10:04:57.084Z,66.95
2022-10-23T10:05:57.401Z,65.67
2022-10-23T10:06:57.697Z,67.45
2022-10-23T10:07:58.006Z,66.82
2022-10-23T10:08:58.313Z,65.41
2022-10-23T10:09:58.667Z,65.74
2022-10-23T10:10:58.888Z,66.75
2022-10-23T10:11:59.211Z,66.75
2022-10-23T10:12:59.523Z,68.79
2022-10-23T10:13:59.838Z,67.85
2022-10-23T10:15:00.165Z,69.22
2022-10-23T10:16:00.466Z,67.65
2022-10-23T10:17:00.783Z,65.95
2022-10-23T10:18:01.137Z,64.01
2022-10-23T10:19:01.433Z,64.01
2022-10-23T10:20:05.236Z,64.62
2022-10-23T10:21:03.062Z,64.65
2022-10-23T10:22:02.328Z,65.31
2022-10-23T10:23:02.629Z,64.22
2022-10-23T10:24:02.945Z,63.45
2022-10-23T10:25:03.259Z,63.84
2022-10-23T10:26:03.571Z,64.95
2022-10-23T10:27:03.918Z,64.72
2022-10-23T10:28:04.228Z,64.42
2022-10-23T10:29:04.536Z,63.48
2022-10-23T10:30:04.928Z,62.28
2022-10-23T10:31:05.109Z,62.61
2022-10-23T10:32:05.456Z,62.78
2022-10-23T10:33:05.787Z,61.42
2022-10-23T10:34:06.107Z,61.09
2022-10-23T10:35:06.419Z,60.39
2022-10-23T10:36:06.733Z,60.59
2022-10-23T10:37:07.084Z,60.10
2022-10-23T10:38:07.278Z,60.89
2022-10-23T10:39:07.579Z,62.13
2022-10-23T10:40:07.867Z,58.61
2022-10-23T10:41:08.200Z,59.28
2022-10-23T10:42:08.544Z,58.31
2022-10-23T10:43:08.888Z,59.04
2022-10-23T10:44:09.087Z,59.18
2022-10-23T10:45:09.386Z,56.32
2022-10-23T10:46:09.743Z,53.04
2022-10-23T10:47:09.957Z,52.69
2022-10-23T10:48:10.282Z,53.44
2022-10-23T10:49:10.624Z,54.98
2022-10-23T10:50:10.838Z,53.56
2022-10-23T10:51:11.176Z,52.72
2022-10-23T10:52:11.495Z,51.70
2022-10-23T10:53:11.839Z,55.41
2022-10-23T10:54:12.039Z,55.26
2022-10-23T10:55:12.355Z,54.50
2022-10-23T10:56:12.682Z,54.08
2022-10-23T10:57:13.041Z,48.82
2022-10-23T10:58:13.273Z,48.13
2022-10-23T10:59:13.520Z,48.65
2022-10-23T11:00:13.830Z,49.79
2022-10-23T11:01:14.215Z,51.47
2022-10-23T11:02:14.596Z,53.44
2022-10-23T11:03:14.776Z,54.68
2022-10-23T11:04:14.998Z,56.38
2022-10-23T11:05:15.296Z,55.96
2022-10-23T11:06:15.585Z,56.88
2022-10-23T11:07:15.923Z,60.19
2022-10-23T11:08:16.237Z,61.82
2022-10-23T11:09:20.723Z,61.55
2022-10-23T11:10:20.694Z,63.18
2022-10-23T11:11:17.208Z,62.71
2022-10-23T11:12:17.510Z,63.34
2022-10-23T11:13:17.811Z,64.54
2022-10-23T11:14:18.109Z,64.34
2022-10-23T11:15:18.402Z,64.65
2022-10-23T11:16:18.731Z,63.64
2022-10-23T11:17:19.050Z,63.64
2022-10-23T11:18:19.355Z,64.51
2022-10-23T11:19:19.683Z,64.09
2022-10-23T11:20:19.986Z,63.39
2022-10-23T11:21:20.278Z,63.65
2022-10-23T11:22:20.573Z,64.25
2022-10-23T11:23:20.871Z,63.42
2022-10-23T11:24:21.215Z,63.19
2022-10-23T11:25:25.264Z,62.22
2022-10-23T11:26:21.751Z,62.62
2022-10-23T11:27:22.081Z,63.06
2022-10-23T11:28:22.404Z,63.98
2022-10-23T11:29:22.712Z,65.98
2022-10-23T11:30:23.013Z,67.92
2022-10-23T11:31:23.344Z,68.05
2022-10-23T11:32:23.711Z,70.73
2022-10-23T11:33:23.941Z,68.32
2022-10-23T11:34:24.246Z,67.92
2022-10-23T11:35:24.555Z,67.95
2022-10-23T11:36:24.863Z,69.32
2022-10-23T11:37:25.166Z,70.36
2022-10-23T11:38:25.515Z,70.12
2022-10-23T11:39:25.723Z,72.24
2022-10-23T11:40:26.026Z,72.34
2022-10-23T11:41:27.134Z,72.24
2022-10-23T11:42:26.606Z,73.58
2022-10-23T11:43:26.934Z,73.18
2022-10-23T11:44:27.266Z,73.04
2022-10-23T11:45:27.605Z,73.18
2022-10-23T11:46:27.839Z,73.38
2022-10-23T11:47:28.017Z,73.78
2022-10-23T11:48:28.325Z,73.92
2022-10-23T11:49:28.653Z,73.61
2022-10-23T11:50:28.997Z,72.91
2022-10-23T11:51:29.303Z,73.21
2022-10-23T11:52:29.630Z,73.72
2022-10-23T11:53:29.935Z,74.35
2022-10-23T11:54:30.257Z,74.99
2022-10-23T11:55:30.626Z,76.14
2022-10-23T11:56:30.808Z,76.84
2022-10-23T11:58:31.388Z,76.48
2022-10-23T11:59:31.621Z,76.78
2022-10-23T12:00:31.967Z,77.93
2022-10-23T12:01:32.274Z,77.28
2022-10-23T12:02:32.561Z,77.59
2022-10-23T12:03:32.738Z,77.59
2022-10-23T12:04:33.041Z,77.69
2022-10-23T12:05:33.394Z,77.08
2022-10-23T12:06:33.598Z,77.42
2022-10-23T12:07:33.948Z,77.32
2022-10-23T12:08:34.134Z,77.42
2022-10-23T12:09:34.458Z,77.73
2022-10-23T12:10:34.784Z,78.03
2022-10-23T12:11:35.121Z,78.13
2022-10-23T12:12:35.455Z,78.23
2022-10-23T12:13:35.763Z,78.27
2022-10-23T12:14:36.072Z,78.77
2022-10-23T12:15:36.386Z,78.67
2022-10-23T12:16:36.718Z,78.88
2022-10-23T12:17:37.018Z,79.17
2022-10-23T12:18:37.296Z,79.24
2022-10-23T12:19:37.586Z,79.04
2022-10-23T12:20:37.934Z,79.58
2022-10-23T12:21:38.149Z,79.38
2022-10-23T12:22:38.502Z,79.38
2022-10-23T12:23:38.719Z,79.58
2022-10-23T12:24:39.037Z,79.79
2022-10-23T12:25:39.351Z,79.01
2022-10-23T12:26:39.639Z,79.48
2022-10-23T12:27:39.990Z,78.61
2022-10-23T12:28:40.166Z,79.21
2022-10-23T12:29:40.471Z,79.62
2022-10-23T12:30:40.784Z,80.22
2022-10-23T12:31:44.282Z,80.02
2022-10-23T12:32:42.792Z,80.22
2022-10-23T12:33:41.754Z,80.22
2022-10-23T12:34:42.062Z,79.41
2022-10-23T12:35:42.367Z,79.52
2022-10-23T12:36:42.723Z,78.17
2022-10-23T12:37:42.916Z,77.56
2022-10-23T12:38:43.253Z,76.92
2022-10-23T12:39:43.567Z,76.82
2022-10-23T12:40:43.881Z,76.07
2022-10-23T12:41:44.248Z,75.67
2022-10-23T12:42:44.697Z,76.04
2022-10-23T12:43:44.781Z,75.20
2022-10-23T12:44:44.963Z,74.76
2022-10-23T12:45:45.277Z,73.21
2022-10-23T12:46:45.597Z,72.71
2022-10-23T12:47:45.945Z,70.16
2022-10-23T12:48:46.158Z,70.19
2022-10-23T12:49:46.528Z,70.59
2022-10-23T12:50:46.741Z,70.96
2022-10-23T12:51:47.060Z,69.85
2022-10-23T12:52:47.412Z,70.06
2022-10-23T12:53:47.630Z,68.75
2022-10-23T12:54:47.984Z,69.35
2022-10-23T12:55:48.262Z,69.85
2022-10-23T12:56:48.506Z,69.45
2022-10-23T12:57:48.834Z,70.73
2022-10-23T12:58:49.327Z,71.47
2022-10-23T12:59:49.396Z,72.97
2022-10-23T13:00:50.122Z,73.11
2022-10-23T13:01:52.782Z,73.55
2022-10-23T13:02:50.484Z,74.69
2022-10-23T13:03:50.841Z,75.63
2022-10-23T13:04:50.803Z,76.07
2022-10-23T13:05:51.185Z,76.88
2022-10-23T13:06:51.500Z,77.22
2022-10-23T13:07:51.663Z,77.42
2022-10-23T13:08:52.052Z,78.17
2022-10-23T13:09:52.580Z,78.88
2022-10-23T13:10:52.819Z,79.41
2022-10-23T13:11:53.595Z,80.22
2022-10-23T13:12:53.506Z,80.16
2022-10-23T13:13:54.022Z,80.97
2022-10-23T13:14:53.823Z,80.77
2022-10-23T13:15:53.985Z,80.91
2022-10-23T13:16:54.101Z,81.11
2022-10-23T13:17:54.369Z,81.01
2022-10-23T13:18:54.686Z,81.31
2022-10-23T13:19:54.975Z,81.92
2022-10-23T13:20:55.234Z,81.92
2022-10-23T13:21:55.460Z,82.62
2022-10-23T13:22:59.311Z,82.62
2022-10-23T13:23:56.076Z,82.62
2022-10-23T13:24:56.439Z,82.32
2022-10-23T13:25:56.643Z,82.42
2022-10-23T13:26:57.000Z,82.62
2022-10-23T13:27:57.185Z,82.42
2022-10-23T13:28:57.514Z,82.97
2022-10-23T13:29:57.867Z,82.97
2022-10-23T13:30:58.189Z,83.47
2022-10-23T13:31:58.573Z,83.47
2022-10-23T13:32:58.807Z,83.27
2022-10-23T13:33:59.144Z,83.47
2022-10-23T13:35:20.461Z,83.78
2022-10-23T13:36:00.635Z,83.88
2022-10-23T13:36:59.932Z,83.78
2022-10-23T13:38:00.138Z,83.88
2022-10-23T13:39:00.469Z,83.84
2022-10-23T13:40:00.840Z,83.64
2022-10-23T13:41:01.080Z,83.23
2022-10-23T13:42:01.285Z,83.23
2022-10-23T13:43:02.013Z,83.23
2022-10-23T13:44:02.381Z,83.54
2022-10-23T13:45:02.468Z,84.14
2022-10-23T13:46:03.469Z,83.60
2022-10-23T13:47:02.958Z,83.50
2022-10-23T13:48:08.830Z,83.70
2022-10-23T13:49:03.514Z,83.40
2022-10-23T13:50:03.642Z,84.11
2022-10-23T13:51:03.938Z,83.40
2022-10-23T13:52:04.159Z,83.60
2022-10-23T13:53:04.569Z,84.31
2022-10-23T13:54:04.855Z,84.31
2022-10-23T13:55:05.050Z,84.11
2022-10-23T13:56:05.455Z,84.11
2022-10-23T13:57:05.784Z,84.31
2022-10-23T13:58:06.049Z,84.41
2022-10-23T13:59:06.309Z,84.81
2022-10-23T14:00:06.532Z,84.11
2022-10-23T14:01:07.017Z,84.20
2022-10-23T14:02:07.365Z,84.31
2022-10-23T14:03:07.516Z,83.90
2022-10-23T14:04:07.816Z,84.11
2022-10-23T14:05:08.054Z,83.80
2022-10-23T14:06:08.255Z,83.70
2022-10-23T14:07:08.654Z,83.70
2022-10-23T14:08:08.883Z,83.76
2022-10-23T14:09:09.117Z,83.66
2022-10-23T14:10:09.320Z,83.46
2022-10-23T14:11:09.708Z,83.66
2022-10-23T14:12:09.958Z,84.47
2022-10-23T14:13:10.203Z,84.67
2022-10-23T14:14:10.550Z,84.97
2022-10-23T14:15:10.654Z,84.37
2022-10-23T14:16:10.873Z,84.37
2022-10-23T14:17:11.306Z,84.27
2022-10-23T14:18:11.640Z,84.17
2022-10-23T14:19:12.155Z,83.62
2022-10-23T14:20:12.172Z,83.72
2022-10-23T14:21:12.457Z,83.82
2022-10-23T14:22:12.739Z,83.92
2022-10-23T14:23:13.089Z,84.29
2022-10-23T14:24:13.542Z,84.29
2022-10-23T14:25:13.542Z,84.09
2022-10-23T14:26:13.947Z,83.98
2022-10-23T14:27:14.259Z,84.19
2022-10-23T14:28:14.685Z,83.62
2022-10-23T14:29:21.231Z,83.01
2022-10-23T14:30:16.528Z,83.92
2022-10-23T14:31:15.352Z,84.37
2022-10-23T14:32:16.059Z,85.58
2022-10-23T14:33:16.039Z,86.33
2022-10-23T14:34:16.403Z,86.63
2022-10-23T14:35:16.445Z,86.43
2022-10-23T14:36:16.806Z,86.22
2022-10-23T14:37:17.042Z,86.39
2022-10-23T14:38:17.542Z,86.29
2022-10-23T14:39:17.473Z,86.19
2022-10-23T14:40:17.695Z,85.99
2022-10-23T14:41:18.413Z,85.88
2022-10-23T14:42:18.438Z,85.78
2022-10-23T14:43:18.638Z,85.88
2022-10-23T14:44:20.574Z,86.19
2022-10-23T14:45:20.025Z,86.43
2022-10-23T14:46:19.484Z,86.73
2022-10-23T14:47:19.687Z,86.83
2022-10-23T14:48:19.997Z,87.44
2022-10-23T14:49:20.244Z,87.64
2022-10-23T14:50:20.645Z,87.44
2022-10-23T14:51:21.048Z,87.24
2022-10-23T14:52:23.263Z,87.04
2022-10-23T14:53:21.799Z,87.13
2022-10-23T14:54:21.587Z,87.13
2022-10-23T14:55:23.250Z,87.13
2022-10-23T14:56:22.639Z,86.79
2022-10-23T14:57:22.768Z,87.81
2022-10-23T14:58:22.792Z,87.30
2022-10-23T14:59:23.108Z,86.90
2022-10-23T15:00:23.329Z,86.69
2022-10-23T15:01:24.227Z,86.49
2022-10-23T15:02:24.146Z,86.59
2022-10-23T15:03:24.628Z,86.99
2022-10-23T15:04:25.789Z,87.10